createdAt,value
2023-04-05T00:01:34.224Z,61.85
2023-04-05T00:04:02.571Z,61.50
2023-04-05T00:06:30.099Z,61.52
2023-04-05T00:08:59.544Z,61.55
2023-04-05T00:11:29.893Z,62.21
2023-04-05T00:13:56.831Z,62.54
2023-04-05T00:16:23.407Z,62.30
2023-04-05T00:18:51.519Z,63.42
2023-04-05T00:21:22.149Z,62.63
2023-04-05T00:23:53.357Z,62.38
2023-04-05T00:26:20.701Z,61.90
2023-04-05T00:28:51.004Z,62.56
2023-04-05T00:31:17.850Z,63.79
2023-04-05T00:33:45.019Z,62.59
2023-04-05T00:36:19.336Z,62.13
2023-04-05T00:38:47.224Z,63.44
2023-04-05T00:41:14.441Z,62.71
2023-04-05T00:43:41.661Z,62.15
2023-04-05T00:46:08.811Z,62.84
2023-04-05T00:48:35.664Z,63.10
2023-04-05T00:51:02.663Z,62.50
2023-04-05T00:53:29.319Z,62.90
2023-04-05T00:55:56.098Z,62.88
2023-04-05T00:58:23.862Z,62.29
2023-04-05T01:00:56.305Z,62.56
2023-04-05T01:03:26.192Z,62.95
2023-04-05T01:06:20.590Z,63.81
2023-04-05T01:09:02.247Z,65.12
2023-04-05T01:11:32.368Z,66.08
2023-04-05T01:14:00.098Z,66.08
2023-04-05T01:16:27.313Z,65.19
2023-04-05T01:18:56.758Z,64.28
2023-04-05T01:21:37.955Z,65.01
2023-04-05T01:24:32.414Z,64.95
2023-04-05T01:27:15.468Z,65.59
2023-04-05T01:29:46.249Z,65.24
2023-04-05T01:32:25.264Z,65.76
2023-04-05T01:34:57.017Z,66.13
2023-04-05T01:37:27.384Z,66.29
2023-04-05T01:39:55.099Z,66.06
2023-04-05T01:42:25.994Z,63.88
2023-04-05T01:44:53.701Z,64.07
2023-04-05T01:47:20.801Z,65.13
2023-04-05T01:49:47.467Z,64.44
2023-04-05T01:52:14.300Z,64.23
2023-04-05T01:54:40.749Z,63.74
2023-04-05T01:57:07.224Z,64.74
2023-04-05T01:59:33.708Z,63.91
2023-04-05T02:02:00.326Z,64.09
2023-04-05T02:04:26.790Z,64.25
2023-04-05T02:06:53.233Z,65.36
2023-04-05T02:09:19.826Z,65.03
2023-04-05T02:11:46.261Z,64.83
2023-04-05T02:14:13.393Z,63.89
2023-04-05T02:16:39.850Z,63.65
2023-04-05T02:19:06.988Z,63.99
2023-04-05T02:21:33.501Z,64.70
2023-04-05T02:23:59.975Z,64.24
2023-04-05T02:26:27.125Z,63.93
2023-04-05T02:28:53.603Z,64.00
2023-04-05T02:31:20.169Z,64.36
2023-04-05T02:33:48.793Z,63.17
2023-04-05T02:36:15.498Z,64.37
2023-04-05T02:38:42.026Z,63.93
2023-04-05T02:41:11.647Z,63.79
2023-04-05T02:43:38.986Z,64.66
2023-04-05T02:46:05.650Z,64.16
2023-04-05T02:48:32.834Z,64.52
2023-04-05T02:50:59.319Z,63.59
2023-04-05T02:53:25.835Z,64.11
2023-04-05T02:55:54.328Z,63.84
2023-04-05T02:58:21.026Z,63.58
2023-04-05T03:00:51.147Z,63.56
2023-04-05T03:03:21.692Z,65.05
2023-04-05T03:05:48.716Z,65.33
2023-04-05T03:08:23.796Z,66.24
2023-04-05T03:10:54.168Z,65.08
2023-04-05T03:13:20.647Z,64.73
2023-04-05T03:15:47.102Z,65.04
2023-04-05T03:18:13.593Z,65.66
2023-04-05T03:20:42.922Z,65.91
2023-04-05T03:23:09.667Z,65.89
2023-04-05T03:25:40.535Z,64.93
2023-04-05T03:28:08.689Z,64.77
2023-04-05T03:30:38.152Z,64.15
2023-04-05T03:33:04.790Z,67.02
2023-04-05T03:35:31.350Z,67.25
2023-04-05T03:37:57.849Z,67.62
2023-04-05T03:40:24.674Z,67.35
2023-04-05T03:42:51.374Z,67.43
2023-04-05T03:45:22.222Z,66.77
2023-04-05T03:47:50.753Z,68.25
2023-04-05T03:50:17.343Z,67.85
2023-04-05T03:52:43.842Z,67.26
2023-04-05T03:55:10.466Z,66.53
2023-04-05T03:57:38.270Z,69.45
2023-04-05T04:00:14.857Z,69.11
2023-04-05T04:02:46.487Z,70.89
2023-04-05T04:05:13.751Z,68.88
2023-04-05T04:07:41.764Z,67.54
2023-04-05T04:10:10.455Z,66.80
2023-04-05T04:12:37.545Z,69.65
2023-04-05T04:15:04.864Z,68.65
2023-04-05T04:17:33.676Z,67.75
2023-04-05T04:20:00.750Z,67.06
2023-04-05T04:22:33.217Z,67.60
2023-04-05T04:25:02.754Z,68.34
2023-04-05T04:27:30.450Z,69.45
2023-04-05T04:30:01.945Z,68.88
2023-04-05T04:32:47.585Z,69.67
2023-04-05T04:35:18.440Z,69.30
2023-04-05T04:37:54.754Z,69.39
2023-04-05T04:40:22.948Z,70.86
2023-04-05T04:42:49.497Z,72.04
2023-04-05T04:45:17.506Z,71.75
2023-04-05T04:47:51.286Z,71.35
2023-04-05T04:50:19.975Z,71.84
2023-04-05T04:52:47.238Z,70.92
2023-04-05T04:55:14.422Z,69.57
2023-04-05T04:57:41.871Z,69.37
2023-04-05T05:00:16.029Z,68.39
2023-04-05T05:02:44.135Z,68.36
2023-04-05T05:05:11.249Z,69.24
2023-04-05T05:07:40.221Z,69.16
2023-04-05T05:10:38.065Z,70.47
2023-04-05T05:13:04.646Z,69.18
2023-04-05T05:15:31.344Z,69.09
2023-04-05T05:17:58.328Z,69.53
2023-04-05T05:20:31.227Z,68.53
2023-04-05T05:23:01.132Z,68.41
2023-04-05T05:25:28.442Z,68.64
2023-04-05T05:27:54.968Z,68.29
2023-04-05T05:30:21.415Z,68.76
2023-04-05T05:32:48.641Z,69.28
2023-04-05T05:35:15.351Z,70.64
2023-04-05T05:37:41.866Z,69.46
2023-04-05T05:40:08.639Z,68.87
2023-04-05T05:42:35.980Z,69.33
2023-04-05T05:45:04.629Z,69.55
2023-04-05T05:47:31.272Z,69.58
2023-04-05T05:49:58.044Z,69.79
2023-04-05T05:52:40.728Z,69.32
2023-04-05T05:55:36.095Z,68.68
2023-04-05T05:58:05.296Z,69.34
2023-04-05T06:01:15.197Z,68.26
2023-04-05T06:03:47.047Z,68.80
2023-04-05T06:06:29.467Z,67.97
2023-04-05T06:09:01.265Z,68.69
2023-04-05T06:11:38.980Z,68.35
2023-04-05T06:14:12.569Z,68.78
2023-04-05T06:16:43.784Z,69.53
2023-04-05T06:19:16.531Z,68.22
2023-04-05T06:21:45.741Z,68.03
2023-04-05T06:24:12.327Z,67.90
2023-04-05T06:26:38.792Z,69.40
2023-04-05T06:29:05.966Z,67.80
2023-04-05T06:31:34.834Z,68.87
2023-04-05T06:34:01.808Z,70.19
2023-04-05T06:36:31.749Z,70.25
2023-04-05T06:38:58.293Z,69.24
2023-04-05T06:41:24.932Z,68.61
2023-04-05T06:43:51.454Z,67.29
2023-04-05T06:49:13.685Z,68.55
2023-04-05T06:51:40.327Z,66.17
2023-04-05T06:54:06.859Z,68.24
2023-04-05T06:56:33.408Z,65.31
2023-04-05T06:59:02.236Z,65.36
2023-04-05T07:04:27.821Z,68.28
2023-04-05T07:07:22.373Z,66.82
2023-04-05T07:17:14.788Z,66.30
2023-04-05T07:23:14.253Z,64.15
2023-04-05T07:28:44.035Z,63.32
2023-04-05T07:34:17.358Z,62.91
2023-04-05T07:40:10.400Z,62.75
2023-04-05T07:43:15.315Z,63.36
2023-04-05T07:45:48.631Z,62.26
2023-04-05T07:48:23.814Z,63.25
2023-04-05T07:54:25.718Z,63.26
2023-04-05T08:00:12.418Z,62.69
2023-04-05T08:02:58.948Z,63.11
2023-04-05T08:06:34.920Z,61.95
2023-04-05T08:09:14.892Z,59.03
2023-04-05T08:12:02.651Z,61.66
2023-04-05T08:15:17.761Z,61.78
2023-04-05T08:17:50.368Z,59.87
2023-04-05T08:23:38.184Z,61.37
2023-04-05T08:32:06.291Z,58.90
2023-04-05T08:42:02.009Z,60.13
2023-04-05T08:51:32.396Z,59.71
2023-04-05T08:54:17.482Z,59.77
2023-04-05T08:57:13.318Z,60.04
2023-04-05T09:23:04.263Z,58.50
2023-04-05T09:26:32.592Z,57.18
2023-04-05T09:29:17.934Z,56.41
2023-04-05T09:31:53.691Z,56.26
2023-04-05T09:38:15.173Z,56.07
2023-04-05T09:41:22.459Z,54.44
2023-04-05T09:44:06.400Z,52.18
2023-04-05T09:54:27.614Z,51.80
2023-04-05T09:57:02.301Z,51.44
2023-04-05T10:11:16.738Z,46.85
2023-04-05T10:17:35.610Z,47.79
2023-04-05T10:20:26.182Z,48.02
2023-04-05T10:27:24.668Z,47.82
2023-04-05T10:30:01.785Z,45.82
2023-04-05T10:35:39.476Z,46.46
2023-04-05T10:38:26.704Z,44.89
2023-04-05T10:41:19.884Z,45.59
2023-04-05T10:43:47.302Z,44.43
2023-04-05T10:46:20.170Z,45.92
2023-04-05T10:49:19.677Z,44.29
2023-04-05T10:51:47.048Z,45.13
2023-04-05T10:54:20.052Z,43.95
2023-04-05T10:56:59.188Z,45.78
2023-04-05T10:59:39.184Z,44.40
2023-04-05T11:06:44.365Z,42.39
2023-04-05T11:09:33.805Z,43.05
2023-04-05T11:15:48.638Z,46.49
2023-04-05T11:18:51.624Z,48.00
2023-04-05T11:25:23.585Z,48.31
2023-04-05T11:28:33.096Z,45.47
2023-04-05T11:31:36.313Z,41.38
2023-04-05T11:37:26.851Z,44.08
2023-04-05T11:40:35.439Z,45.39
2023-04-05T11:43:15.664Z,45.06
2023-04-05T11:45:47.094Z,44.40
2023-04-05T11:48:18.363Z,41.87
2023-04-05T11:57:26.384Z,40.27
2023-04-05T12:08:30.502Z,37.88
2023-04-05T12:11:10.126Z,39.01
2023-04-05T12:13:58.863Z,40.52
2023-04-05T12:17:25.316Z,42.14
2023-04-05T12:20:01.201Z,44.22
2023-04-05T12:22:43.570Z,45.33
2023-04-05T12:29:05.824Z,46.55
2023-04-05T12:34:47.336Z,45.46
2023-04-05T12:43:44.063Z,44.03
2023-04-05T12:46:29.419Z,43.94
2023-04-05T12:52:09.719Z,43.90
2023-04-05T12:54:44.093Z,43.61
2023-04-05T13:15:27.251Z,42.31
2023-04-05T13:21:00.347Z,41.47
2023-04-05T13:23:26.871Z,40.16
2023-04-05T13:26:15.448Z,40.02
2023-04-05T13:29:50.623Z,40.22
2023-04-05T13:32:36.378Z,40.98
2023-04-05T13:35:16.250Z,40.62
2023-04-05T13:41:12.213Z,42.14
2023-04-05T13:43:38.740Z,40.28
2023-04-05T13:57:26.537Z,41.30
2023-04-05T14:17:50.300Z,42.99
2023-04-05T14:20:32.538Z,43.21
2023-04-05T14:25:58.555Z,44.00
2023-04-05T14:34:45.446Z,40.92
2023-04-05T14:40:17.087Z,41.34
2023-04-05T14:43:00.857Z,42.08
2023-04-05T14:48:52.201Z,42.67
2023-04-05T14:51:20.265Z,41.36
2023-04-05T14:53:47.094Z,42.21
2023-04-05T14:56:14.029Z,41.67
2023-04-05T14:58:46.121Z,41.48
2023-04-05T15:01:27.058Z,41.73
2023-04-05T15:03:55.246Z,43.04
2023-04-05T15:06:29.481Z,43.71
2023-04-05T15:08:56.052Z,42.74
2023-04-05T15:11:22.599Z,42.46
2023-04-05T15:13:49.078Z,43.16
2023-04-05T15:16:16.297Z,43.28
2023-04-05T15:18:44.234Z,43.20
2023-04-05T15:21:10.920Z,42.84
2023-04-05T15:23:38.459Z,43.09
2023-04-05T15:26:04.944Z,43.25
2023-04-05T15:28:31.371Z,43.25
2023-04-05T15:30:57.879Z,43.22
2023-04-05T15:33:24.419Z,43.90
2023-04-05T15:35:51.014Z,43.86
2023-04-05T15:38:17.577Z,43.73
2023-04-05T15:40:47.034Z,43.51
2023-04-05T15:43:16.637Z,43.41
2023-04-05T15:45:43.192Z,44.28
2023-04-05T15:48:09.721Z,43.47
2023-04-05T15:50:36.278Z,43.84
2023-04-05T15:53:02.719Z,44.22
2023-04-05T15:58:39.941Z,44.63
2023-04-05T16:01:06.535Z,43.81
2023-04-05T16:03:37.316Z,43.55
2023-04-05T16:06:15.035Z,44.37
2023-04-05T16:08:41.644Z,44.09
2023-04-05T16:11:08.721Z,44.26
2023-04-05T16:13:35.828Z,43.65
2023-04-05T16:16:02.555Z,44.65
2023-04-05T16:18:29.776Z,44.86
2023-04-05T16:20:56.942Z,44.79
2023-04-05T16:23:23.635Z,44.52
2023-04-05T16:25:50.362Z,44.35
2023-04-05T16:28:16.980Z,44.81
2023-04-05T16:30:47.129Z,44.86
2023-04-05T16:33:14.506Z,45.16
2023-04-05T16:35:41.479Z,44.68
2023-04-05T16:38:10.920Z,44.26
2023-04-05T16:40:37.621Z,44.53
2023-04-05T16:43:05.361Z,44.85
2023-04-05T16:45:39.238Z,44.97
2023-04-05T16:48:05.963Z,45.17
2023-04-05T16:51:46.610Z,44.68
2023-04-05T16:55:23.026Z,45.32
2023-04-05T17:02:14.990Z,45.57
2023-04-05T17:11:46.202Z,45.71
2023-04-05T17:20:08.022Z,46.29
2023-04-05T17:22:34.543Z,45.68
2023-04-05T17:25:02.754Z,47.06
2023-04-05T17:27:29.202Z,47.19
2023-04-05T17:29:55.947Z,47.15
2023-04-05T17:32:22.480Z,47.38
2023-04-05T17:34:48.932Z,47.72
2023-04-05T17:37:15.498Z,47.23
2023-04-05T17:39:41.921Z,47.25
2023-04-05T17:42:08.378Z,47.68
2023-04-05T17:44:34.828Z,47.47
2023-04-05T17:47:08.516Z,47.97
2023-04-05T17:49:37.426Z,47.64
2023-04-05T17:52:05.103Z,48.38
2023-04-05T17:54:32.178Z,48.46
2023-04-05T17:56:58.642Z,49.00
2023-04-05T17:59:25.469Z,48.97
2023-04-05T18:01:53.833Z,49.84
2023-04-05T18:04:21.411Z,49.81
2023-04-05T18:06:48.244Z,50.42
2023-04-05T18:09:14.679Z,50.17
2023-04-05T18:11:41.514Z,50.47
2023-04-05T18:14:07.998Z,49.83
2023-04-05T18:16:34.630Z,50.24
2023-04-05T18:19:01.145Z,49.92
2023-04-05T18:21:28.484Z,50.58
2023-04-05T18:23:54.930Z,50.32
2023-04-05T18:26:21.433Z,50.55
2023-04-05T18:28:49.039Z,50.82
2023-04-05T18:31:15.888Z,50.20
2023-04-05T18:33:42.400Z,50.30
2023-04-05T18:36:08.954Z,50.60
2023-04-05T18:38:35.476Z,50.89
2023-04-05T18:41:07.078Z,51.21
2023-04-05T18:43:33.581Z,51.34
2023-04-05T18:46:00.500Z,51.27
2023-04-05T18:48:27.075Z,52.10
2023-04-05T18:50:54.422Z,52.40
2023-04-05T18:53:21.746Z,52.76
2023-04-05T18:55:51.952Z,52.32
2023-04-05T18:58:18.463Z,52.57
2023-04-05T19:00:44.961Z,52.96
2023-04-05T19:03:11.534Z,53.00
2023-04-05T19:05:38.138Z,53.48
2023-04-05T19:08:04.866Z,53.22
2023-04-05T19:10:31.344Z,53.39
2023-04-05T19:12:57.845Z,53.58
2023-04-05T19:15:24.359Z,53.15
2023-04-05T19:17:51.146Z,53.44
2023-04-05T19:20:17.750Z,54.03
2023-04-05T19:22:44.229Z,53.95
2023-04-05T19:25:10.863Z,53.76
2023-04-05T19:27:37.606Z,53.43
2023-04-05T19:30:04.588Z,53.95
2023-04-05T19:32:31.285Z,53.94
2023-04-05T19:34:59.382Z,54.11
2023-04-05T19:37:26.081Z,53.89
2023-04-05T19:39:54.258Z,54.50
2023-04-05T19:42:21.381Z,54.25
2023-04-05T19:44:52.108Z,53.69
2023-04-05T19:47:21.965Z,54.47
2023-04-05T19:49:49.703Z,54.47
2023-04-05T19:52:45.438Z,54.32
2023-04-05T19:55:33.885Z,53.99
2023-04-05T19:58:02.252Z,53.10
2023-04-05T20:00:37.819Z,53.29
2023-04-05T20:03:24.265Z,53.78
2023-04-05T20:06:09.276Z,53.85
2023-04-05T20:08:42.845Z,53.92
2023-04-05T20:11:18.092Z,54.39
2023-04-05T20:13:49.407Z,53.47
2023-04-05T20:16:16.548Z,53.69
2023-04-05T20:18:47.739Z,53.69
2023-04-05T20:21:15.378Z,53.87
2023-04-05T20:23:43.374Z,54.00
2023-04-05T20:26:13.800Z,54.11
2023-04-05T20:28:42.709Z,54.57
2023-04-05T20:31:11.986Z,55.41
2023-04-05T20:33:44.714Z,55.21
2023-04-05T20:36:12.116Z,54.98
2023-04-05T20:38:42.597Z,55.89
2023-04-05T20:41:11.558Z,55.87
2023-04-05T20:43:39.511Z,56.98
2023-04-05T20:46:07.099Z,57.19
2023-04-05T20:48:35.474Z,56.26
2023-04-05T20:51:04.671Z,56.89
2023-04-05T20:53:31.404Z,56.21
2023-04-05T20:55:59.099Z,56.08
2023-04-05T20:58:26.369Z,56.21
2023-04-05T21:00:53.466Z,56.46
2023-04-05T21:03:20.120Z,56.42
2023-04-05T21:05:46.799Z,57.38
2023-04-05T21:08:13.265Z,56.91
2023-04-05T21:10:40.084Z,57.25
2023-04-05T21:13:06.847Z,57.05
2023-04-05T21:15:34.836Z,57.17
2023-04-05T21:18:02.585Z,57.18
2023-04-05T21:20:29.142Z,56.94
2023-04-05T21:22:58.552Z,57.30
2023-04-05T21:25:25.623Z,57.56
2023-04-05T21:27:53.614Z,57.37
2023-04-05T21:30:20.107Z,57.72
2023-04-05T21:32:46.619Z,58.43
2023-04-05T21:35:13.374Z,58.04
2023-04-05T21:37:39.958Z,58.76
2023-04-05T21:40:07.301Z,58.45
2023-04-05T21:42:33.838Z,58.94
2023-04-05T21:45:00.305Z,59.59
2023-04-05T21:47:26.860Z,59.86
2023-04-05T21:49:53.390Z,60.27
2023-04-05T21:52:20.255Z,59.71
2023-04-05T21:54:46.872Z,60.35
2023-04-05T21:57:13.302Z,60.03
2023-04-05T21:59:39.944Z,60.38
2023-04-05T22:02:09.477Z,59.85
2023-04-05T22:04:36.573Z,59.80
2023-04-05T22:07:07.370Z,60.11
2023-04-05T22:09:33.920Z,59.94
2023-04-05T22:12:01.469Z,59.87
2023-04-05T22:14:28.952Z,60.16
2023-04-05T22:16:56.453Z,60.26
2023-04-05T22:19:23.564Z,59.78
2023-04-05T22:21:50.428Z,60.04
2023-04-05T22:24:17.208Z,60.36
2023-04-05T22:26:43.747Z,60.35
2023-04-05T22:29:10.464Z,60.45
2023-04-05T22:31:37.069Z,59.96
2023-04-05T22:34:03.584Z,60.45
2023-04-05T22:36:31.807Z,60.83
2023-04-05T22:38:58.357Z,60.24
2023-04-05T22:41:24.862Z,60.40
2023-04-05T22:43:51.334Z,61.72
2023-04-05T22:46:18.515Z,61.67
2023-04-05T22:48:45.046Z,61.24
2023-04-05T22:51:11.829Z,61.90
2023-04-05T22:53:38.363Z,61.91
2023-04-05T22:56:04.983Z,61.96
2023-04-05T22:58:32.827Z,62.46
2023-04-05T23:00:59.540Z,62.93
2023-04-05T23:03:26.628Z,62.75
2023-04-05T23:05:53.131Z,62.28
2023-04-05T23:08:19.625Z,62.65
2023-04-05T23:10:47.234Z,63.12
2023-04-05T23:13:13.839Z,63.21
2023-04-05T23:15:40.491Z,63.57
2023-04-05T23:18:07.084Z,63.48
2023-04-05T23:20:33.544Z,63.17
2023-04-05T23:23:00.338Z,64.44
2023-04-05T23:25:26.826Z,65.13
2023-04-05T23:27:54.422Z,64.80
2023-04-05T23:30:20.875Z,64.93
2023-04-05T23:32:47.369Z,64.45
2023-04-05T23:35:14.055Z,64.82
2023-04-05T23:37:40.476Z,63.91
2023-04-05T23:40:07.595Z,65.62
2023-04-05T23:42:34.083Z,64.03
2023-04-05T23:45:02.909Z,64.76
2023-04-05T23:47:29.368Z,65.67
2023-04-05T23:49:55.874Z,66.48
2023-04-05T23:52:22.325Z,65.47
2023-04-05T23:54:48.780Z,67.72
2023-04-05T23:57:15.761Z,66.27
2023-04-05T23:59:42.274Z,66.58
